Kargopol, Russia
Current Conditions -  °F | °C
As of 11:00 AM on Tuesday 27 Jan 2015 (Local Time) from ULPB Reporting Station
Light Snow Light Snow  
Wind Chill: 12°   Ceiling: 800
Heat Index: 23°   Visibility: 6mi
Dew Point: 21°   Wind: 11mph
Humidity: 93%   Direction: 210°SSW
Pressure: 29.85"   Gusts: NA
Location:  61.5°N, 38.97°E
Report Text: ULPB 270800Z 21005MPS 9999 -SN OVC008 M05/M06 Q1011 NOSIG RMKQBB240 QFE754/1006 SC035
Loading
Personal Weather Stations






























Interactive Weather Map New forecast layout! Learn more

10-Day Weather Forecast

Advertisements
Track Severe Weather on mobile